sensor_id;sensor_type;location;lat;lon;timestamp;P1;durP1;ratioP1;P2;durP2;ratioP2
52952;SDS011;38815;55.932;-3.232;2022-09-12T00:01:16;4.47;;;1.70;;
52952;SDS011;38815;55.932;-3.232;2022-09-12T00:03:46;6.85;;;2.08;;
52952;SDS011;38815;55.932;-3.232;2022-09-12T00:06:16;4.07;;;1.60;;
52952;SDS011;38815;55.932;-3.232;2022-09-12T00:08:44;5.97;;;2.15;;
52952;SDS011;38815;55.932;-3.232;2022-09-12T00:11:10;6.60;;;1.88;;
52952;SDS011;38815;55.932;-3.232;2022-09-12T00:13:36;6.05;;;1.92;;
52952;SDS011;38815;55.932;-3.232;2022-09-12T00:16:03;6.57;;;2.08;;
52952;SDS011;38815;55.932;-3.232;2022-09-12T00:18:29;7.18;;;2.22;;
52952;SDS011;38815;55.932;-3.232;2022-09-12T00:21:03;5.28;;;1.67;;
52952;SDS011;38815;55.932;-3.232;2022-09-12T00:23:29;4.85;;;1.67;;
52952;SDS011;38815;55.932;-3.232;2022-09-12T00:25:55;4.97;;;1.73;;
52952;SDS011;38815;55.932;-3.232;2022-09-12T00:28:21;5.85;;;1.90;;
52952;SDS011;38815;55.932;-3.232;2022-09-12T00:30:50;4.03;;;1.38;;
52952;SDS011;38815;55.932;-3.232;2022-09-12T00:33:16;6.32;;;1.83;;
52952;SDS011;38815;55.932;-3.232;2022-09-12T00:35:46;4.15;;;1.48;;
52952;SDS011;38815;55.932;-3.232;2022-09-12T00:38:17;5.70;;;1.30;;
52952;SDS011;38815;55.932;-3.232;2022-09-12T00:40:43;3.10;;;1.30;;
52952;SDS011;38815;55.932;-3.232;2022-09-12T00:43:56;2.80;;;1.10;;
52952;SDS011;38815;55.932;-3.232;2022-09-12T00:48:48;4.25;;;1.40;;
52952;SDS011;38815;55.932;-3.232;2022-09-12T00:51:16;3.83;;;1.25;;
52952;SDS011;38815;55.932;-3.232;2022-09-12T00:53:44;3.85;;;1.35;;
52952;SDS011;38815;55.932;-3.232;2022-09-12T00:56:14;4.53;;;1.40;;
52952;SDS011;38815;55.932;-3.232;2022-09-12T00:58:47;3.20;;;1.10;;
52952;SDS011;38815;55.932;-3.232;2022-09-12T01:01:22;4.25;;;1.50;;
52952;SDS011;38815;55.932;-3.232;2022-09-12T01:03:48;2.72;;;1.10;;
52952;SDS011;38815;55.932;-3.232;2022-09-12T01:06:15;2.67;;;1.08;;
52952;SDS011;38815;55.932;-3.232;2022-09-12T01:08:46;2.17;;;0.85;;
52952;SDS011;38815;55.932;-3.232;2022-09-12T01:11:12;2.83;;;1.00;;
52952;SDS011;38815;55.932;-3.232;2022-09-12T01:13:39;2.28;;;0.95;;
52952;SDS011;38815;55.932;-3.232;2022-09-12T01:16:06;2.83;;;1.02;;
52952;SDS011;38815;55.932;-3.232;2022-09-12T01:32:42;2.20;;;0.98;;
52952;SDS011;38815;55.932;-3.232;2022-09-12T01:40:49;2.70;;;1.10;;
52952;SDS011;38815;55.932;-3.232;2022-09-12T01:46:14;3.03;;;0.98;;
52952;SDS011;38815;55.932;-3.232;2022-09-12T01:49:12;2.90;;;0.98;;
52952;SDS011;38815;55.932;-3.232;2022-09-12T01:52:03;3.35;;;0.90;;
52952;SDS011;38815;55.932;-3.232;2022-09-12T01:54:39;3.22;;;1.08;;
52952;SDS011;38815;55.932;-3.232;2022-09-12T01:57:19;3.05;;;0.90;;
52952;SDS011;38815;55.932;-3.232;2022-09-12T01:59:53;2.80;;;1.00;;
52952;SDS011;38815;55.932;-3.232;2022-09-12T02:05:13;3.53;;;1.08;;
52952;SDS011;38815;55.932;-3.232;2022-09-12T02:08:02;3.78;;;1.20;;
52952;SDS011;38815;55.932;-3.232;2022-09-12T02:10:36;2.80;;;0.93;;
52952;SDS011;38815;55.932;-3.232;2022-09-12T02:13:16;4.93;;;1.20;;
52952;SDS011;38815;55.932;-3.232;2022-09-12T02:16:05;4.53;;;0.90;;
52952;SDS011;38815;55.932;-3.232;2022-09-12T02:18:35;2.92;;;1.00;;
52952;SDS011;38815;55.932;-3.232;2022-09-12T02:21:04;3.60;;;1.30;;
52952;SDS011;38815;55.932;-3.232;2022-09-12T02:23:31;3.40;;;1.40;;
52952;SDS011;38815;55.932;-3.232;2022-09-12T02:26:05;2.40;;;0.77;;
52952;SDS011;38815;55.932;-3.232;2022-09-12T02:28:37;2.83;;;1.00;;
52952;SDS011;38815;55.932;-3.232;2022-09-12T02:31:28;3.25;;;0.75;;
52952;SDS011;38815;55.932;-3.232;2022-09-12T02:34:14;11.43;;;1.00;;
52952;SDS011;38815;55.932;-3.232;2022-09-12T02:39:50;2.75;;;0.90;;
52952;SDS011;38815;55.932;-3.232;2022-09-12T02:42:19;3.55;;;1.13;;
52952;SDS011;38815;55.932;-3.232;2022-09-12T02:44:46;4.90;;;0.80;;
52952;SDS011;38815;55.932;-3.232;2022-09-12T02:47:21;3.65;;;0.80;;
52952;SDS011;38815;55.932;-3.232;2022-09-12T02:49:52;3.67;;;0.80;;
52952;SDS011;38815;55.932;-3.232;2022-09-12T02:52:19;1.75;;;0.88;;
52952;SDS011;38815;55.932;-3.232;2022-09-12T02:54:45;2.13;;;0.80;;
52952;SDS011;38815;55.932;-3.232;2022-09-12T02:57:15;2.05;;;0.80;;
52952;SDS011;38815;55.932;-3.232;2022-09-12T03:02:23;1.58;;;0.63;;
52952;SDS011;38815;55.932;-3.232;2022-09-12T03:08:10;2.60;;;0.90;;
52952;SDS011;38815;55.932;-3.232;2022-09-12T03:13:24;4.05;;;1.15;;
52952;SDS011;38815;55.932;-3.232;2022-09-12T03:18:52;4.63;;;1.00;;
52952;SDS011;38815;55.932;-3.232;2022-09-12T03:24:01;3.22;;;1.38;;
52952;SDS011;38815;55.932;-3.232;2022-09-12T03:26:41;3.97;;;1.10;;
52952;SDS011;38815;55.932;-3.232;2022-09-12T03:29:21;3.30;;;1.10;;
52952;SDS011;38815;55.932;-3.232;2022-09-12T03:31:50;3.42;;;1.10;;
52952;SDS011;38815;55.932;-3.232;2022-09-12T03:34:21;3.72;;;1.35;;
52952;SDS011;38815;55.932;-3.232;2022-09-12T03:36:54;5.07;;;1.25;;
52952;SDS011;38815;55.932;-3.232;2022-09-12T03:39:23;2.55;;;1.00;;
52952;SDS011;38815;55.932;-3.232;2022-09-12T03:41:50;4.57;;;1.00;;
52952;SDS011;38815;55.932;-3.232;2022-09-12T03:44:17;3.55;;;1.23;;
52952;SDS011;38815;55.932;-3.232;2022-09-12T03:46:44;2.35;;;0.95;;
52952;SDS011;38815;55.932;-3.232;2022-09-12T03:49:09;4.10;;;1.10;;
52952;SDS011;38815;55.932;-3.232;2022-09-12T03:51:35;1.27;;;0.77;;
52952;SDS011;38815;55.932;-3.232;2022-09-12T03:54:07;3.72;;;0.80;;
52952;SDS011;38815;55.932;-3.232;2022-09-12T03:56:33;1.23;;;0.68;;
52952;SDS011;38815;55.932;-3.232;2022-09-12T03:59:00;2.90;;;1.00;;
52952;SDS011;38815;55.932;-3.232;2022-09-12T04:01:25;4.97;;;1.02;;
52952;SDS011;38815;55.932;-3.232;2022-09-12T04:03:51;2.83;;;0.82;;
52952;SDS011;38815;55.932;-3.232;2022-09-12T04:06:18;3.63;;;1.10;;
52952;SDS011;38815;55.932;-3.232;2022-09-12T04:08:49;2.40;;;0.75;;
52952;SDS011;38815;55.932;-3.232;2022-09-12T04:11:19;2.70;;;0.85;;
52952;SDS011;38815;55.932;-3.232;2022-09-12T04:14:04;3.08;;;0.80;;
52952;SDS011;38815;55.932;-3.232;2022-09-12T04:16:30;3.28;;;0.90;;
52952;SDS011;38815;55.932;-3.232;2022-09-12T04:18:56;2.92;;;0.80;;
52952;SDS011;38815;55.932;-3.232;2022-09-12T04:21:23;3.97;;;0.95;;
52952;SDS011;38815;55.932;-3.232;2022-09-12T04:23:48;3.22;;;0.80;;
52952;SDS011;38815;55.932;-3.232;2022-09-12T04:26:14;3.55;;;1.00;;
52952;SDS011;38815;55.932;-3.232;2022-09-12T04:28:42;4.13;;;1.08;;
52952;SDS011;38815;55.932;-3.232;2022-09-12T04:31:10;3.30;;;1.33;;
52952;SDS011;38815;55.932;-3.232;2022-09-12T04:33:39;1.75;;;0.77;;
52952;SDS011;38815;55.932;-3.232;2022-09-12T04:36:07;2.92;;;1.00;;
52952;SDS011;38815;55.932;-3.232;2022-09-12T04:38:37;2.60;;;1.00;;
52952;SDS011;38815;55.932;-3.232;2022-09-12T04:41:25;2.67;;;0.70;;
52952;SDS011;38815;55.932;-3.232;2022-09-12T04:44:04;2.80;;;0.70;;
52952;SDS011;38815;55.932;-3.232;2022-09-12T04:46:34;2.20;;;0.68;;
52952;SDS011;38815;55.932;-3.232;2022-09-12T04:49:00;4.70;;;0.90;;
52952;SDS011;38815;55.932;-3.232;2022-09-12T04:51:28;1.55;;;0.65;;
52952;SDS011;38815;55.932;-3.232;2022-09-12T04:53:56;2.28;;;0.70;;
52952;SDS011;38815;55.932;-3.232;2022-09-12T04:56:23;1.98;;;0.75;;
52952;SDS011;38815;55.932;-3.232;2022-09-12T04:58:49;4.65;;;0.98;;
52952;SDS011;38815;55.932;-3.232;2022-09-12T05:01:16;4.38;;;1.30;;
52952;SDS011;38815;55.932;-3.232;2022-09-12T05:03:43;8.00;;;2.40;;
52952;SDS011;38815;55.932;-3.232;2022-09-12T05:06:14;8.57;;;2.97;;
52952;SDS011;38815;55.932;-3.232;2022-09-12T05:08:41;9.27;;;3.50;;
52952;SDS011;38815;55.932;-3.232;2022-09-12T05:11:09;10.13;;;3.67;;
52952;SDS011;38815;55.932;-3.232;2022-09-12T05:13:37;10.05;;;3.28;;
52952;SDS011;38815;55.932;-3.232;2022-09-12T05:16:03;10.25;;;3.25;;
52952;SDS011;38815;55.932;-3.232;2022-09-12T05:18:30;10.15;;;3.58;;
52952;SDS011;38815;55.932;-3.232;2022-09-12T05:21:00;8.50;;;2.88;;
52952;SDS011;38815;55.932;-3.232;2022-09-12T05:23:27;8.00;;;2.35;;
52952;SDS011;38815;55.932;-3.232;2022-09-12T05:25:54;9.50;;;3.35;;
52952;SDS011;38815;55.932;-3.232;2022-09-12T05:28:22;10.45;;;3.17;;
52952;SDS011;38815;55.932;-3.232;2022-09-12T05:30:47;9.40;;;3.28;;
52952;SDS011;38815;55.932;-3.232;2022-09-12T05:33:24;7.60;;;2.60;;
52952;SDS011;38815;55.932;-3.232;2022-09-12T05:35:50;9.48;;;3.75;;
52952;SDS011;38815;55.932;-3.232;2022-09-12T05:38:16;10.05;;;3.40;;
52952;SDS011;38815;55.932;-3.232;2022-09-12T05:40:42;8.85;;;2.78;;
52952;SDS011;38815;55.932;-3.232;2022-09-12T05:43:07;10.80;;;4.22;;
52952;SDS011;38815;55.932;-3.232;2022-09-12T05:45:34;14.88;;;3.38;;
52952;SDS011;38815;55.932;-3.232;2022-09-12T05:47:59;10.07;;;3.65;;
52952;SDS011;38815;55.932;-3.232;2022-09-12T05:50:26;9.20;;;3.10;;
52952;SDS011;38815;55.932;-3.232;2022-09-12T05:52:52;10.32;;;2.88;;
52952;SDS011;38815;55.932;-3.232;2022-09-12T05:55:18;11.95;;;4.82;;
52952;SDS011;38815;55.932;-3.232;2022-09-12T05:57:44;8.30;;;2.75;;
52952;SDS011;38815;55.932;-3.232;2022-09-12T06:00:10;9.27;;;2.80;;
52952;SDS011;38815;55.932;-3.232;2022-09-12T06:02:37;10.25;;;3.85;;
52952;SDS011;38815;55.932;-3.232;2022-09-12T06:05:02;9.05;;;3.45;;
52952;SDS011;38815;55.932;-3.232;2022-09-12T06:07:28;7.63;;;2.42;;
52952;SDS011;38815;55.932;-3.232;2022-09-12T06:09:53;8.93;;;3.13;;
52952;SDS011;38815;55.932;-3.232;2022-09-12T06:12:19;9.70;;;3.53;;
52952;SDS011;38815;55.932;-3.232;2022-09-12T06:14:44;9.38;;;2.58;;
52952;SDS011;38815;55.932;-3.232;2022-09-12T06:17:10;7.70;;;2.45;;
52952;SDS011;38815;55.932;-3.232;2022-09-12T06:19:35;8.95;;;2.55;;
52952;SDS011;38815;55.932;-3.232;2022-09-12T06:22:01;9.25;;;2.92;;
52952;SDS011;38815;55.932;-3.232;2022-09-12T06:24:27;10.30;;;3.53;;
52952;SDS011;38815;55.932;-3.232;2022-09-12T06:26:55;11.95;;;4.15;;
52952;SDS011;38815;55.932;-3.232;2022-09-12T06:29:41;14.15;;;3.60;;
52952;SDS011;38815;55.932;-3.232;2022-09-12T06:32:06;18.58;;;4.78;;
52952;SDS011;38815;55.932;-3.232;2022-09-12T06:34:31;23.85;;;4.65;;
52952;SDS011;38815;55.932;-3.232;2022-09-12T06:36:59;14.70;;;4.47;;
52952;SDS011;38815;55.932;-3.232;2022-09-12T06:39:33;11.50;;;3.65;;
52952;SDS011;38815;55.932;-3.232;2022-09-12T06:41:59;18.05;;;4.43;;
52952;SDS011;38815;55.932;-3.232;2022-09-12T06:44:24;17.65;;;5.10;;
52952;SDS011;38815;55.932;-3.232;2022-09-12T06:46:50;16.48;;;4.25;;
52952;SDS011;38815;55.932;-3.232;2022-09-12T06:49:17;10.50;;;2.92;;
52952;SDS011;38815;55.932;-3.232;2022-09-12T06:51:43;10.88;;;2.00;;
52952;SDS011;38815;55.932;-3.232;2022-09-12T06:54:15;6.55;;;1.80;;
52952;SDS011;38815;55.932;-3.232;2022-09-12T06:56:41;13.13;;;2.20;;
52952;SDS011;38815;55.932;-3.232;2022-09-12T06:59:06;4.43;;;1.50;;
52952;SDS011;38815;55.932;-3.232;2022-09-12T07:01:39;4.55;;;1.30;;
52952;SDS011;38815;55.932;-3.232;2022-09-12T07:04:08;5.35;;;1.00;;
52952;SDS011;38815;55.932;-3.232;2022-09-12T07:06:34;6.07;;;1.30;;
52952;SDS011;38815;55.932;-3.232;2022-09-12T07:09:02;3.13;;;1.17;;
52952;SDS011;38815;55.932;-3.232;2022-09-12T07:11:30;5.13;;;1.10;;
52952;SDS011;38815;55.932;-3.232;2022-09-12T07:13:59;3.03;;;1.08;;
52952;SDS011;38815;55.932;-3.232;2022-09-12T07:16:27;4.50;;;1.10;;
52952;SDS011;38815;55.932;-3.232;2022-09-12T07:18:55;3.10;;;1.10;;
52952;SDS011;38815;55.932;-3.232;2022-09-12T07:21:25;4.72;;;1.33;;
52952;SDS011;38815;55.932;-3.232;2022-09-12T07:23:51;2.53;;;1.00;;
52952;SDS011;38815;55.932;-3.232;2022-09-12T07:26:19;8.35;;;1.20;;
52952;SDS011;38815;55.932;-3.232;2022-09-12T07:28:44;5.35;;;1.40;;
52952;SDS011;38815;55.932;-3.232;2022-09-12T07:31:17;5.53;;;1.10;;
52952;SDS011;38815;55.932;-3.232;2022-09-12T07:33:44;3.72;;;1.00;;
52952;SDS011;38815;55.932;-3.232;2022-09-12T07:36:13;11.00;;;1.02;;
52952;SDS011;38815;55.932;-3.232;2022-09-12T07:38:42;8.30;;;1.67;;
52952;SDS011;38815;55.932;-3.232;2022-09-12T07:43:41;5.78;;;1.50;;
52952;SDS011;38815;55.932;-3.232;2022-09-12T07:46:07;6.57;;;1.15;;
52952;SDS011;38815;55.932;-3.232;2022-09-12T07:48:33;4.35;;;1.30;;
52952;SDS011;38815;55.932;-3.232;2022-09-12T07:51:03;5.70;;;1.38;;
52952;SDS011;38815;55.932;-3.232;2022-09-12T07:53:35;6.82;;;1.40;;
52952;SDS011;38815;55.932;-3.232;2022-09-12T07:56:02;2.00;;;0.98;;
52952;SDS011;38815;55.932;-3.232;2022-09-12T07:58:30;1.95;;;0.90;;
52952;SDS011;38815;55.932;-3.232;2022-09-12T08:03:28;2.75;;;0.90;;
52952;SDS011;38815;55.932;-3.232;2022-09-12T08:05:53;1.95;;;0.82;;
52952;SDS011;38815;55.932;-3.232;2022-09-12T08:08:19;1.63;;;0.75;;
52952;SDS011;38815;55.932;-3.232;2022-09-12T08:10:44;3.47;;;0.82;;
52952;SDS011;38815;55.932;-3.232;2022-09-12T08:13:10;1.83;;;0.68;;
52952;SDS011;38815;55.932;-3.232;2022-09-12T08:15:35;3.67;;;1.02;;
52952;SDS011;38815;55.932;-3.232;2022-09-12T08:18:01;4.53;;;0.93;;
52952;SDS011;38815;55.932;-3.232;2022-09-12T08:20:26;2.38;;;0.88;;
52952;SDS011;38815;55.932;-3.232;2022-09-12T08:22:52;3.40;;;0.98;;
52952;SDS011;38815;55.932;-3.232;2022-09-12T08:25:17;2.47;;;1.15;;
52952;SDS011;38815;55.932;-3.232;2022-09-12T08:27:43;1.85;;;0.80;;
52952;SDS011;38815;55.932;-3.232;2022-09-12T08:30:10;1.83;;;0.60;;
52952;SDS011;38815;55.932;-3.232;2022-09-12T08:32:37;3.40;;;1.10;;
52952;SDS011;38815;55.932;-3.232;2022-09-12T08:35:02;3.72;;;1.30;;
52952;SDS011;38815;55.932;-3.232;2022-09-12T08:37:31;3.00;;;0.98;;
52952;SDS011;38815;55.932;-3.232;2022-09-12T08:39:59;2.78;;;0.60;;
52952;SDS011;38815;55.932;-3.232;2022-09-12T08:42:30;2.05;;;0.88;;
52952;SDS011;38815;55.932;-3.232;2022-09-12T08:45:22;1.92;;;0.90;;
52952;SDS011;38815;55.932;-3.232;2022-09-12T08:47:57;3.20;;;1.20;;
52952;SDS011;38815;55.932;-3.232;2022-09-12T08:50:26;1.67;;;0.73;;
52952;SDS011;38815;55.932;-3.232;2022-09-12T08:58:24;3.65;;;1.00;;
52952;SDS011;38815;55.932;-3.232;2022-09-12T09:01:07;1.27;;;0.60;;
52952;SDS011;38815;55.932;-3.232;2022-09-12T09:17:43;2.83;;;0.80;;
52952;SDS011;38815;55.932;-3.232;2022-09-12T09:22:51;3.65;;;1.30;;
52952;SDS011;38815;55.932;-3.232;2022-09-12T09:25:20;3.08;;;1.25;;
52952;SDS011;38815;55.932;-3.232;2022-09-12T09:27:51;2.55;;;1.30;;
52952;SDS011;38815;55.932;-3.232;2022-09-12T09:30:22;4.97;;;1.80;;
52952;SDS011;38815;55.932;-3.232;2022-09-12T09:32:49;1.30;;;0.60;;
52952;SDS011;38815;55.932;-3.232;2022-09-12T09:35:21;4.57;;;1.60;;
52952;SDS011;38815;55.932;-3.232;2022-09-12T09:37:53;3.25;;;1.13;;
52952;SDS011;38815;55.932;-3.232;2022-09-12T09:45:41;3.40;;;1.20;;
52952;SDS011;38815;55.932;-3.232;2022-09-12T09:50:40;5.18;;;1.70;;
52952;SDS011;38815;55.932;-3.232;2022-09-12T09:53:08;2.50;;;0.80;;
52952;SDS011;38815;55.932;-3.232;2022-09-12T09:55:50;1.55;;;0.70;;
52952;SDS011;38815;55.932;-3.232;2022-09-12T09:58:31;2.60;;;0.70;;
52952;SDS011;38815;55.932;-3.232;2022-09-12T10:01:00;2.03;;;0.90;;
52952;SDS011;38815;55.932;-3.232;2022-09-12T10:03:38;1.50;;;0.70;;
52952;SDS011;38815;55.932;-3.232;2022-09-12T10:06:25;1.63;;;0.75;;
52952;SDS011;38815;55.932;-3.232;2022-09-12T10:09:05;2.78;;;0.70;;
52952;SDS011;38815;55.932;-3.232;2022-09-12T10:11:41;3.83;;;0.88;;
52952;SDS011;38815;55.932;-3.232;2022-09-12T10:14:22;3.33;;;0.70;;
52952;SDS011;38815;55.932;-3.232;2022-09-12T10:16:55;3.15;;;0.90;;
52952;SDS011;38815;55.932;-3.232;2022-09-12T10:19:23;2.50;;;0.70;;
52952;SDS011;38815;55.932;-3.232;2022-09-12T10:21:58;5.97;;;2.22;;
52952;SDS011;38815;55.932;-3.232;2022-09-12T10:24:40;2.38;;;0.80;;
52952;SDS011;38815;55.932;-3.232;2022-09-12T10:29:40;1.55;;;0.80;;
52952;SDS011;38815;55.932;-3.232;2022-09-12T10:32:12;3.33;;;0.82;;
52952;SDS011;38815;55.932;-3.232;2022-09-12T10:34:44;3.08;;;0.80;;
52952;SDS011;38815;55.932;-3.232;2022-09-12T10:37:17;2.72;;;0.95;;
52952;SDS011;38815;55.932;-3.232;2022-09-12T10:39:51;2.80;;;0.95;;
52952;SDS011;38815;55.932;-3.232;2022-09-12T10:47:50;3.80;;;1.35;;
52952;SDS011;38815;55.932;-3.232;2022-09-12T10:52:51;3.85;;;1.23;;
52952;SDS011;38815;55.932;-3.232;2022-09-12T10:55:18;2.05;;;0.98;;
52952;SDS011;38815;55.932;-3.232;2022-09-12T10:57:53;3.20;;;1.20;;
52952;SDS011;38815;55.932;-3.232;2022-09-12T11:00:20;3.25;;;0.90;;
52952;SDS011;38815;55.932;-3.232;2022-09-12T11:08:28;2.60;;;1.00;;
52952;SDS011;38815;55.932;-3.232;2022-09-12T11:11:04;3.88;;;1.13;;
52952;SDS011;38815;55.932;-3.232;2022-09-12T11:13:58;2.90;;;0.83;;
52952;SDS011;38815;55.932;-3.232;2022-09-12T11:19:18;2.53;;;0.85;;
52952;SDS011;38815;55.932;-3.232;2022-09-12T11:35:07;3.45;;;0.70;;
52952;SDS011;38815;55.932;-3.232;2022-09-12T11:40:29;1.05;;;0.55;;
52952;SDS011;38815;55.932;-3.232;2022-09-12T11:43:48;5.13;;;0.85;;
52952;SDS011;38815;55.932;-3.232;2022-09-12T11:45:51;3.92;;;0.80;;
52952;SDS011;38815;55.932;-3.232;2022-09-12T11:48:21;2.50;;;0.80;;
52952;SDS011;38815;55.932;-3.232;2022-09-12T11:51:02;2.55;;;0.63;;
52952;SDS011;38815;55.932;-3.232;2022-09-12T11:53:33;0.55;;;0.40;;
52952;SDS011;38815;55.932;-3.232;2022-09-12T11:56:12;1.77;;;0.60;;
52952;SDS011;38815;55.932;-3.232;2022-09-12T11:58:42;2.78;;;0.68;;
52952;SDS011;38815;55.932;-3.232;2022-09-12T12:01:14;1.35;;;0.57;;
52952;SDS011;38815;55.932;-3.232;2022-09-12T12:03:45;4.90;;;0.82;;
52952;SDS011;38815;55.932;-3.232;2022-09-12T12:06:30;1.58;;;0.70;;
52952;SDS011;38815;55.932;-3.232;2022-09-12T12:09:00;3.85;;;1.23;;
52952;SDS011;38815;55.932;-3.232;2022-09-12T12:11:32;1.92;;;0.52;;
52952;SDS011;38815;55.932;-3.232;2022-09-12T12:16:37;5.00;;;1.50;;
52952;SDS011;38815;55.932;-3.232;2022-09-12T12:34:36;4.78;;;1.80;;
52952;SDS011;38815;55.932;-3.232;2022-09-12T12:47:26;4.22;;;0.85;;
52952;SDS011;38815;55.932;-3.232;2022-09-12T12:49:56;2.67;;;0.80;;
52952;SDS011;38815;55.932;-3.232;2022-09-12T12:52:22;4.03;;;1.10;;
52952;SDS011;38815;55.932;-3.232;2022-09-12T12:54:51;3.70;;;1.05;;
52952;SDS011;38815;55.932;-3.232;2022-09-12T13:02:17;3.28;;;0.90;;
52952;SDS011;38815;55.932;-3.232;2022-09-12T13:04:56;5.25;;;1.35;;
52952;SDS011;38815;55.932;-3.232;2022-09-12T13:07:29;7.55;;;1.42;;
52952;SDS011;38815;55.932;-3.232;2022-09-12T13:10:03;7.43;;;1.27;;
52952;SDS011;38815;55.932;-3.232;2022-09-12T13:12:43;4.38;;;1.35;;
52952;SDS011;38815;55.932;-3.232;2022-09-12T13:18:24;3.97;;;1.13;;
52952;SDS011;38815;55.932;-3.232;2022-09-12T13:24:01;9.27;;;3.17;;
52952;SDS011;38815;55.932;-3.232;2022-09-12T13:26:41;6.15;;;1.52;;
52952;SDS011;38815;55.932;-3.232;2022-09-12T13:29:11;7.18;;;1.70;;
52952;SDS011;38815;55.932;-3.232;2022-09-12T13:31:40;6.97;;;1.80;;
52952;SDS011;38815;55.932;-3.232;2022-09-12T13:34:06;6.20;;;1.65;;
52952;SDS011;38815;55.932;-3.232;2022-09-12T13:36:45;8.15;;;1.90;;
52952;SDS011;38815;55.932;-3.232;2022-09-12T13:39:27;4.03;;;1.20;;
52952;SDS011;38815;55.932;-3.232;2022-09-12T13:42:36;7.47;;;2.30;;
52952;SDS011;38815;55.932;-3.232;2022-09-12T13:45:12;5.45;;;1.63;;
52952;SDS011;38815;55.932;-3.232;2022-09-12T13:47:45;5.43;;;1.90;;
52952;SDS011;38815;55.932;-3.232;2022-09-12T13:53:19;7.32;;;1.98;;
52952;SDS011;38815;55.932;-3.232;2022-09-12T13:55:54;6.43;;;1.73;;
52952;SDS011;38815;55.932;-3.232;2022-09-12T13:58:28;5.70;;;1.58;;
52952;SDS011;38815;55.932;-3.232;2022-09-12T14:03:41;7.40;;;2.17;;
52952;SDS011;38815;55.932;-3.232;2022-09-12T14:06:50;6.13;;;1.85;;
52952;SDS011;38815;55.932;-3.232;2022-09-12T14:09:27;8.05;;;1.98;;
52952;SDS011;38815;55.932;-3.232;2022-09-12T14:11:56;11.18;;;2.35;;
52952;SDS011;38815;55.932;-3.232;2022-09-12T14:14:32;7.30;;;1.60;;
52952;SDS011;38815;55.932;-3.232;2022-09-12T14:17:00;11.40;;;2.58;;
52952;SDS011;38815;55.932;-3.232;2022-09-12T14:19:39;8.00;;;2.30;;
52952;SDS011;38815;55.932;-3.232;2022-09-12T14:22:06;9.65;;;2.60;;
52952;SDS011;38815;55.932;-3.232;2022-09-12T14:24:36;10.02;;;3.00;;
52952;SDS011;38815;55.932;-3.232;2022-09-12T14:27:01;10.10;;;2.13;;
52952;SDS011;38815;55.932;-3.232;2022-09-12T14:29:28;5.05;;;1.77;;
52952;SDS011;38815;55.932;-3.232;2022-09-12T14:32:02;5.72;;;1.35;;
52952;SDS011;38815;55.932;-3.232;2022-09-12T14:34:28;7.32;;;1.85;;
52952;SDS011;38815;55.932;-3.232;2022-09-12T14:36:54;9.68;;;1.90;;
52952;SDS011;38815;55.932;-3.232;2022-09-12T14:39:31;6.07;;;1.92;;
52952;SDS011;38815;55.932;-3.232;2022-09-12T14:42:03;8.30;;;1.88;;
52952;SDS011;38815;55.932;-3.232;2022-09-12T14:44:28;5.30;;;1.55;;
52952;SDS011;38815;55.932;-3.232;2022-09-12T14:46:57;9.98;;;1.60;;
52952;SDS011;38815;55.932;-3.232;2022-09-12T14:49:34;7.28;;;1.80;;
52952;SDS011;38815;55.932;-3.232;2022-09-12T14:52:05;5.10;;;1.33;;
52952;SDS011;38815;55.932;-3.232;2022-09-12T14:54:39;8.85;;;1.70;;
52952;SDS011;38815;55.932;-3.232;2022-09-12T15:00:03;5.95;;;1.60;;
52952;SDS011;38815;55.932;-3.232;2022-09-12T15:02:33;6.93;;;1.42;;
52952;SDS011;38815;55.932;-3.232;2022-09-12T15:07:40;6.47;;;1.48;;
52952;SDS011;38815;55.932;-3.232;2022-09-12T15:10:17;6.03;;;1.42;;
52952;SDS011;38815;55.932;-3.232;2022-09-12T15:12:49;5.38;;;1.23;;
52952;SDS011;38815;55.932;-3.232;2022-09-12T15:15:27;7.57;;;2.08;;
52952;SDS011;38815;55.932;-3.232;2022-09-12T15:17:52;6.90;;;1.73;;
52952;SDS011;38815;55.932;-3.232;2022-09-12T15:20:18;5.70;;;1.05;;
52952;SDS011;38815;55.932;-3.232;2022-09-12T15:22:43;5.07;;;1.45;;
52952;SDS011;38815;55.932;-3.232;2022-09-12T15:25:09;4.70;;;1.40;;
52952;SDS011;38815;55.932;-3.232;2022-09-12T15:27:36;3.95;;;1.17;;
52952;SDS011;38815;55.932;-3.232;2022-09-12T15:30:05;4.63;;;1.20;;
52952;SDS011;38815;55.932;-3.232;2022-09-12T15:32:31;8.43;;;1.90;;
52952;SDS011;38815;55.932;-3.232;2022-09-12T15:34:58;8.43;;;1.77;;
52952;SDS011;38815;55.932;-3.232;2022-09-12T15:37:23;5.07;;;1.45;;
52952;SDS011;38815;55.932;-3.232;2022-09-12T15:39:50;7.93;;;1.95;;
52952;SDS011;38815;55.932;-3.232;2022-09-12T15:42:16;7.47;;;1.42;;
52952;SDS011;38815;55.932;-3.232;2022-09-12T15:44:48;6.18;;;1.25;;
52952;SDS011;38815;55.932;-3.232;2022-09-12T15:47:14;8.50;;;2.53;;
52952;SDS011;38815;55.932;-3.232;2022-09-12T15:49:39;5.57;;;1.50;;
52952;SDS011;38815;55.932;-3.232;2022-09-12T15:52:08;5.95;;;1.60;;
52952;SDS011;38815;55.932;-3.232;2022-09-12T15:54:39;8.77;;;1.70;;
52952;SDS011;38815;55.932;-3.232;2022-09-12T15:57:05;5.35;;;1.50;;
52952;SDS011;38815;55.932;-3.232;2022-09-12T15:59:30;5.65;;;1.42;;
52952;SDS011;38815;55.932;-3.232;2022-09-12T16:01:55;5.93;;;1.50;;
52952;SDS011;38815;55.932;-3.232;2022-09-12T16:04:26;6.28;;;1.40;;
52952;SDS011;38815;55.932;-3.232;2022-09-12T16:06:53;7.43;;;1.70;;
52952;SDS011;38815;55.932;-3.232;2022-09-12T16:09:19;8.20;;;2.00;;
52952;SDS011;38815;55.932;-3.232;2022-09-12T16:11:45;8.00;;;2.25;;
52952;SDS011;38815;55.932;-3.232;2022-09-12T16:14:14;13.18;;;2.95;;
52952;SDS011;38815;55.932;-3.232;2022-09-12T16:16:41;13.90;;;4.47;;
52952;SDS011;38815;55.932;-3.232;2022-09-12T16:19:07;8.23;;;2.00;;
52952;SDS011;38815;55.932;-3.232;2022-09-12T16:21:35;9.00;;;2.45;;
52952;SDS011;38815;55.932;-3.232;2022-09-12T16:24:01;7.15;;;2.05;;
52952;SDS011;38815;55.932;-3.232;2022-09-12T16:26:26;9.93;;;2.08;;
52952;SDS011;38815;55.932;-3.232;2022-09-12T16:28:55;7.28;;;1.40;;
52952;SDS011;38815;55.932;-3.232;2022-09-12T16:31:22;6.03;;;1.60;;
52952;SDS011;38815;55.932;-3.232;2022-09-12T16:33:48;6.40;;;1.35;;
52952;SDS011;38815;55.932;-3.232;2022-09-12T16:36:14;7.05;;;1.45;;
52952;SDS011;38815;55.932;-3.232;2022-09-12T16:38:46;9.05;;;3.10;;
52952;SDS011;38815;55.932;-3.232;2022-09-12T16:41:14;10.65;;;2.90;;
52952;SDS011;38815;55.932;-3.232;2022-09-12T16:43:41;10.13;;;1.92;;
52952;SDS011;38815;55.932;-3.232;2022-09-12T16:46:11;7.47;;;2.08;;
52952;SDS011;38815;55.932;-3.232;2022-09-12T16:48:44;10.60;;;3.53;;
52952;SDS011;38815;55.932;-3.232;2022-09-12T16:51:13;11.52;;;3.60;;
52952;SDS011;38815;55.932;-3.232;2022-09-12T16:53:39;17.23;;;7.07;;
52952;SDS011;38815;55.932;-3.232;2022-09-12T16:56:06;17.05;;;5.00;;
52952;SDS011;38815;55.932;-3.232;2022-09-12T16:58:32;13.38;;;5.35;;
52952;SDS011;38815;55.932;-3.232;2022-09-12T17:01:20;16.35;;;6.43;;
52952;SDS011;38815;55.932;-3.232;2022-09-12T17:03:45;12.52;;;4.55;;
52952;SDS011;38815;55.932;-3.232;2022-09-12T17:06:12;15.82;;;5.22;;
52952;SDS011;38815;55.932;-3.232;2022-09-12T17:08:41;11.27;;;4.00;;
52952;SDS011;38815;55.932;-3.232;2022-09-12T17:11:12;8.00;;;2.55;;
52952;SDS011;38815;55.932;-3.232;2022-09-12T17:13:39;9.82;;;2.40;;
52952;SDS011;38815;55.932;-3.232;2022-09-12T17:16:10;8.50;;;2.63;;
52952;SDS011;38815;55.932;-3.232;2022-09-12T17:18:38;9.88;;;3.22;;
52952;SDS011;38815;55.932;-3.232;2022-09-12T17:21:07;11.50;;;3.92;;
52952;SDS011;38815;55.932;-3.232;2022-09-12T17:23:35;13.05;;;4.25;;
52952;SDS011;38815;55.932;-3.232;2022-09-12T17:26:01;8.65;;;2.58;;
52952;SDS011;38815;55.932;-3.232;2022-09-12T17:28:27;10.60;;;4.05;;
52952;SDS011;38815;55.932;-3.232;2022-09-12T17:30:57;9.45;;;2.42;;
52952;SDS011;38815;55.932;-3.232;2022-09-12T17:33:24;10.80;;;3.25;;
52952;SDS011;38815;55.932;-3.232;2022-09-12T17:35:49;9.18;;;2.60;;
52952;SDS011;38815;55.932;-3.232;2022-09-12T17:38:16;7.18;;;2.08;;